Weather observations for the past three days for
Forest City Municipal Airport
Metric (Imperial)
Date Time (cdt) Wind (kph) Vis. (km) Weather Sky Cond. Temperature (ºC) Relative Humidity Wind Chill (°C) Heat Index (°C) Pressure Precipitation (cm)
Air Dwpt 6 hour altimeter (cm) sea level (mb) 1 hr 3 hr 6 hr
Max. Min.
01 18:35 Calm 16.09 Fair CLR 28 20 62% 30 76 0.0
01 18:15 Calm 16.09 Fair CLR 28 20 62% 30 76 0.0
01 17:55 Calm 16.09 Fair CLR 28 20 62% 30 76.02 0.0
01 17:35 Calm 16.09 Fair CLR 29 21 62% 31 76.02 0.0
01 17:15 Calm 16.09 Fair CLR 30 21 59% 33 76.02 0.0
01 16:55 Calm 16.09 Partly Cloudy SCT110 30 21 59% 33 76.02 0.0
01 16:35 Calm 16.09 Partly Cloudy SCT110 30 21 59% 33 76 0.0
01 16:15 Calm 16.09 Mostly Cloudy BKN110 30 21 59% 33 76.02 0.0
01 15:55 Calm 16.09 Partly Cloudy SCT120 30 21 59% 33 76.02 0.0
01 15:35 Calm 16.09 Fair CLR 31 20 52% 33 76.02 0.0
01 15:15 Calm 16.09 Fair CLR 30 18 49% 31 76.05 0.0
01 14:55 Calm 16.09 Fair CLR 31 18 46% 32 76.05 0.0
01 14:35 E 11 16.09 Fair CLR 31 20 52% 33 76.07 0.0
01 14:15 Calm 16.09 Fair CLR 30 21 59% 33 76.07 0.0
01 13:55 Calm 16.09 Fair CLR 30 21 59% 33 76.1 0.0
01 13:35 SE 6 16.09 Fair CLR 28 21 66% 30 76.1 0.0
01 13:15 Calm 16.09 Fair CLR 28 21 66% 30 76.1 0.0
01 12:55 E 7 16.09 Fair CLR 29 20 58% 31 76.12 0.0
01 12:35 Calm 16.09 Fair CLR 30 20 55% 32 76.17 0.0
01 12:15 Calm 16.09 Fair CLR 30 20 55% 32 76.17 0.0
01 11:55 Calm 16.09 Fair CLR 29 20 58% 31 76.17 0.0
01 11:35 Calm 16.09 Fair CLR 29 21 62% 31 76.17 0.0
01 11:15 Calm 16.09 Fair CLR 29 22 66% 32 76.15 0.0
01 10:55 Calm 16.09 Fair CLR 28 23 74% 31 76.15 0.0
01 10:35 Calm 16.09 Fair CLR 27 22 74% 29 76.15 0.0
01 10:10 Calm 16.09 Fair CLR 27 22 74% 29 76.17 0.0
01 09:55 Calm 16.09 Fair CLR 25 22 83% 26 76.15 0.0
01 09:35 Calm 16.09 Fair CLR 23 21 89% 76.17 0.0
01 09:15 Calm 16.09 Fair CLR 22 21 94% 76.17 0.0
01 08:55 Calm 16.09 Fair CLR 22 20 88% 76.17 0.0
01 08:35 Calm 16.09 Fair CLR 21 20 94% 76.2 0.0
01 08:15 Calm 16.09 Fair CLR 20 20 100% 76.17 0.0
01 07:55 Calm 11.27 Fair CLR 19 18 94% 76.17 0.0
01 07:35 Calm 8.05 Fog/Mist CLR 18 17 94% 76.17 0.0
01 07:15 Calm 8.05 Fog/Mist CLR 18 17 94% 76.17 0.0
01 06:55 Calm 2.82 Fog/Mist VV007 17 16 94% 76.15 0.0
01 06:35 Calm 3.22 Fog/Mist CLR 17 17 100% 76.15 0.0
01 06:15 Calm 1.61 Fog/Mist BKN001 17 16 94% 76.12 0.0
01 05:55 Calm 11.27 Partly Cloudy SCT001 SCT110 17 17 100% 76.12 0.0
01 05:35 Calm 8.05 Fog/Mist BKN001 BKN110 17 17 100% 76.12 0.0
01 05:15 Calm 4.02 Fog/Mist SCT001 17 16 94% 76.12 0.0
01 04:55 Calm 11.27 Fair CLR 17 16 94% 76.12 0.0
01 04:35 Calm 8.05 Fog/Mist SCT002 17 17 100% 76.1 0.0
01 04:15 Calm 4.83 Fog/Mist BKN002 18 17 94% 76.1 0.0
01 03:55 Calm 3.22 Fog/Mist OVC002 17 17 100% 76.1 0.0
01 03:35 Calm 4.02 Fog/Mist OVC002 18 17 94% 76.1 0.0
01 03:15 Calm 1.21 Fog/Mist OVC002 18 17 94% 76.1 0.0
01 02:55 Calm 0.40 Fog OVC002 18 17 94% 76.12 0.0
01 02:35 Calm 4.83 Fog/Mist BKN002 18 17 94% 76.15 0.0
01 02:15 Calm 0.80 Fog OVC002 18 17 94% 76.12 0.0
01 01:55 Calm 2.01 Fog/Mist OVC002 18 17 94% 76.12 0.0
01 01:35 Calm 0.40 Fog OVC002 18 17 94% 76.12 0.0
01 01:15 Calm 0.80 Fog OVC002 18 17 94% 76.12 0.0
01 00:55 Calm 0.80 Fog OVC002 18 17 94% 76.12 0.0
01 00:35 Calm 0.80 Fog OVC002 18 18 100% 76.12 0.0
01 00:15 Calm 0.40 Fog OVC002 18 18 100% 76.1 0.0
31 23:55 Calm 0.24 Fog OVC002 18 18 100% 76.1 0.0
31 23:35 Calm 0.40 Fog OVC002 19 18 94% 76.1 0.0
31 23:15 Calm 0.40 Fog OVC002 19 18 94% 76.1 0.0
31 22:55 Calm 1.61 Fog/Mist BKN002 19 18 94% 76.1 0.0
31 22:35 Calm 3.22 Fog/Mist CLR 20 19 94% 76.1 0.0
31 22:15 Calm 3.22 Fog/Mist CLR 21 20 94% 76.1 0.0
31 21:55 Calm 6.44 Fog/Mist CLR 21 20 94% 76.07 0.0
31 21:35 Calm 11.27 Fair CLR 21 21 100% 76.07 0.0
31 21:15 Calm 11.27 Fair CLR 21 20 94% 76.05 0.0
31 20:55 Calm 16.09 Fair CLR 22 21 94% 76.05 0.0
31 20:35 Calm 16.09 Fair CLR 23 22 94% 76.02 0.0
31 20:15 Calm 16.09 Fair CLR 25 22 83% 26 76.02 0.0
31 19:55 Calm 16.09 Fair CLR 25 22 83% 26 76.02 0.0
31 19:35 Calm 16.09 Fair CLR 26 22 79% 28 76.02 0.0
31 19:15 Calm 16.09 Fair CLR 27 22 74% 29 76 0.0
31 18:35 Calm 16.09 Fair CLR 28 22 70% 31 76 0.0
31 18:15 Calm 16.09 Fair CLR 28 22 70% 31 76.02 0.0
31 17:55 Calm 16.09 Fair CLR 28 22 70% 31 76 0.0
31 17:35 Calm 16.09 Fair CLR 28 22 70% 31 76 0.0
31 17:15 Calm 16.09 Fair CLR 28 22 70% 31 76 0.0
31 16:55 Calm 16.09 Fair CLR 29 21 62% 31 76 0.0
31 16:35 NW 7 16.09 Fair CLR 28 22 70% 31 75.97 0.0
31 16:15 Calm 16.09 Fair CLR 28 21 66% 30 75.97 0.0
31 15:55 Calm 16.09 Fair CLR 28 22 70% 31 75.97 0.0
31 15:35 Calm 16.09 Partly Cloudy SCT022 28 21 66% 30 75.97 0.0
31 15:15 Calm 16.09 Fair CLR 27 22 74% 29 75.97 0.0
31 14:55 Calm 16.09 Partly Cloudy SCT018 27 22 74% 29 75.97 0.0
31 14:35 Calm 16.09 Fair CLR 27 22 74% 29 75.97 0.0
31 14:15 Calm 16.09 Partly Cloudy SCT018 27 21 70% 29 75.97 0.0
31 13:55 Calm 16.09 Partly Cloudy SCT016 27 21 70% 29 75.95 0.0
31 13:35 Calm 16.09 Fair CLR 26 21 74% 27 75.92 0.0
31 13:15 NW 9 16.09 Fair CLR 26 21 74% 27 75.92 0.0
31 12:55 N 11 16.09 Fair CLR 26 22 79% 28 75.87 0.0
31 12:35 Calm 16.09 Fair CLR 27 21 70% 29 75.87 0.0
31 12:15 Calm 16.09 Fair CLR 27 21 70% 29 75.87 0.0
31 11:55 Calm 16.09 Fair CLR 27 21 70% 29 75.92 0.0
31 11:35 Calm 16.09 Fair CLR 27 21 70% 29 75.95 0.0
31 11:15 Calm 16.09 Fair CLR 27 21 70% 29 75.95 0.0
31 10:55 W 6 16.09 Fair CLR 28 21 66% 30 75.92 0.0
31 10:35 W 11 16.09 Fair CLR 27 21 70% 29 75.92 0.0
31 10:15 Calm 16.09 Fair CLR 27 21 70% 29 75.9 0.0
31 09:55 W 13 16.09 Fair CLR 27 21 70% 29 75.9 0.0
31 09:35 W 6 16.09 Fair CLR 26 21 74% 27 75.87 0.0
31 09:15 SW 9 16.09 Fair CLR 25 21 79% 26 75.87 0.0
31 08:55 SW 6 16.09 Fair CLR 25 21 79% 26 75.87 0.0
31 08:35 W 6 16.09 Fair CLR 23 21 89% 75.84 0.0
31 08:15 SW 6 16.09 Fair CLR 23 21 89% 75.84 0.0
31 07:55 Calm 16.09 Fair CLR 22 21 94% 75.82 0.0
31 07:35 Calm 11.27 Fair CLR 21 20 94% 75.79 0.0
31 07:15 Calm 8.05 Fog/Mist CLR 18 18 100% 75.77 0.0
31 06:55 Calm 11.27 Fair CLR 18 17 94% 75.77 0.0
31 06:35 Calm 11.27 Fair CLR 19 18 94% 75.74 0.0
31 06:15 Calm 8.05 Fog/Mist CLR 17 17 100% 75.74 0.0
31 05:55 Calm 1.61 Fog/Mist VV007 17 17 100% 75.72 0.0
31 05:35 Calm 1.21 Fog/Mist SCT002 18 17 94% 75.74 0.0
31 05:15 Calm 0.80 Fog BKN002 17 17 100% 75.74 0.0
31 04:55 Calm 0.40 Fog BKN002 18 17 94% 75.72 0.0
31 04:35 Calm 1.21 Fog/Mist VV005 18 18 100% 75.74 0.0
31 04:15 Calm 4.02 Fog/Mist CLR 18 17 94% 75.74 0.0
31 03:55 Calm 1.21 Fog/Mist BKN002 18 18 100% 75.74 0.0
31 03:35 Calm 1.61 Fog/Mist VV007 18 18 100% 75.74 0.0
31 03:15 Calm 8.05 Fog/Mist SCT002 18 18 100% 75.72 0.0
31 02:55 Calm 0.40 Fog OVC002 18 17 94% 75.72 0.0
31 02:35 Calm 0.40 Fog BKN002 19 18 94% 75.72 0.0
31 02:15 Calm 0.80 Fog SCT002 20 18 88% 75.72 0.0
31 01:55 Calm 4.83 Fog/Mist CLR 20 19 94% 75.74 0.0
31 01:35 Calm 8.05 Fog/Mist CLR 20 20 100% 75.74 0.0
31 01:15 Calm 8.05 Fog/Mist CLR 20 19 94% 75.74 0.0
31 00:55 Calm 8.05 Fog/Mist CLR 20 20 100% 75.77 0.0
31 00:35 Calm 11.27 Fair CLR 20 20 100% 75.77 0.0
31 00:15 Calm 11.27 Fair CLR 21 20 94% 75.77 0.0
30 23:55 Calm 11.27 Fair CLR 21 20 94% 75.77 0.0
30 23:35 Calm 16.09 Fair CLR 21 20 94% 75.77 0.0
30 23:15 Calm 16.09 Fair CLR 22 20 88% 75.77 0.0
30 22:55 Calm 16.09 Fair CLR 22 20 88% 75.74 0.0
30 22:35 Calm 16.09 Fair CLR 22 21 94% 75.74 0.0
30 22:15 Calm 16.09 Fair CLR 22 21 94% 75.77 0.0
30 21:55 Calm 16.09 Fair CLR 22 21 94% 75.77 0.0
30 21:35 Calm 16.09 Fair CLR 22 20 88% 75.79 0.0
30 21:15 Calm 16.09 Fair CLR 23 21 89% 75.79 0.0
30 20:55 Calm 16.09 Fair CLR 23 21 89% 75.79 0.0
30 20:35 Calm 16.09 Fair CLR 22 21 94% 75.77 0.0
30 20:15 Calm 16.09 Fair CLR 23 21 89% 75.77 0.0
30 19:55 Calm 16.09 Fair CLR 23 21 89% 75.77 0.0
30 19:35 Calm 16.09 Fair CLR 24 21 83% 24 75.77 0.0
30 19:15 Calm 16.09 Fair CLR 25 20 74% 26 75.77 0.0
30 18:55 Calm 16.09 Fair CLR 25 20 74% 26 75.74 0.0
30 18:35 S 9 G 31 16.09 Fair CLR 26 20 70% 27 75.77 0.0
30 18:15 SE 9 G 26 16.09 Fair CLR 26 20 70% 27 75.77 0.0
30 17:55 SE 17 16.09 Fair CLR 26 20 70% 27 75.74 0.0
30 17:35 SE 26 16.09 Fair CLR 26 20 70% 27 75.72 0.0
30 17:15 SE 20 16.09 Fair CLR 26 20 70% 27 75.72 0.0
30 16:55 S 19 G 26 16.09 Light Rain CLR 26 20 70% 27 75.72 0.0
30 16:35 SE 19 16.09 Fair CLR 27 20 66% 29 75.72 0.0
30 16:15 S 13 16.09 Fair CLR 27 21 70% 29 75.72 0.0
30 15:55 SE 17 16.09 Fair CLR 27 20 66% 29 75.74 0.0
30 15:35 Calm 16.09 Fair CLR 27 20 66% 29 75.72 0.0
30 15:15 S 17 16.09 Fair CLR 26 20 70% 27 75.72 0.0
30 14:55 S 19 G 30 16.09 Fair CLR 26 19 65% 27 75.72 0.0
30 14:35 SE 20 16.09 Fair CLR 26 20 70% 27 75.72 0.0
30 14:15 S 13 16.09 Light Rain SCT044 SCT055 SCT100 25 20 74% 26 75.79 0.0
30 13:55 S 20 16.09 Light Rain SCT044 SCT065 SCT075 24 20 78% 24 75.79 0.0
30 13:35 Calm 16.09 Fair CLR 25 19 69% 26 75.79 0.0
30 13:15 S 31 16.09 Fair CLR 26 19 65% 27 75.74 0.0
30 12:55 S 15 16.09 Fair CLR 26 19 65% 27 75.77 0.0
30 12:35 S 22 G 33 16.09 Fair CLR 26 18 61% 27 75.77 0.0
30 12:15 S 11 16.09 Fair CLR 25 20 74% 26 75.74 0.0
30 11:55 S 7 16.09 Fair CLR 23 20 83% 75.77 0.0
30 11:35 S 11 16.09 Partly Cloudy SCT060 SCT080 22 20 88% 75.77 0.0
30 11:15 SE 9 16.09 Light Drizzle SCT060 SCT080 BKN110 23 19 78% 75.74 0.0
30 10:55 S 11 16.09 Partly Cloudy SCT110 23 19 78% 75.79 0.0
30 10:35 S 15 16.09 Overcast SCT090 OVC110 23 19 78% 75.84 0.0
30 10:15 S 17 16.09 Light Rain SCT037 SCT090 BKN110 23 19 78% 75.79 0.0
30 09:55 SW 7 16.09 Partly Cloudy SCT110 26 18 61% 27 75.72 0.0
30 09:35 Calm 16.09 Fair CLR 25 18 65% 26 75.72 0.0
30 09:15 S 15 16.09 Fair CLR 24 19 74% 25 75.72 0.0
30 08:55 Calm 16.09 Fair CLR 22 19 83% 75.72 0.0
30 08:35 Calm 16.09 Fair CLR 22 19 83% 75.72 0.0
30 08:15 Calm 16.09 Fair CLR 21 18 83% 75.72 0.0
30 07:55 Calm 16.09 Fair CLR 21 18 83% 75.69 0.0
30 07:35 Calm 16.09 Fair CLR 20 18 88% 75.74 0.0
30 07:15 Calm 16.09 Fair CLR 18 17 94% 75.72 0.0
30 06:55 Calm 16.09 Fair CLR 18 17 94% 75.69 0.0
30 06:35 Calm 16.09 Fair CLR 18 17 94% 75.74 0.0
30 06:15 Calm 16.09 Fair CLR 18 17 94% 75.72 0.0
30 05:55 Calm 16.09 Fair CLR 18 17 94% 75.72 0.0
30 05:35 Calm 16.09 Fair CLR 19 17 88% 75.74 0.0
30 05:15 Calm 16.09 Fair CLR 19 17 88% 75.72 0.0
30 04:55 Calm 16.09 Fair CLR 20 18 88% 75.72 0.0
30 04:35 Calm 16.09 Fair CLR 19 18 94% 75.74 0.0
30 04:15 Calm 16.09 Fair CLR 20 18 88% 75.72 0.0
30 03:55 Calm 16.09 Fair CLR 20 18 88% 75.72 0.0
30 03:35 Calm 16.09 Fair CLR 20 18 88% 75.72 0.0
30 03:15 Calm 16.09 Fair CLR 20 18 88% 75.72 0.0
30 02:55 Calm 16.09 Fair CLR 20 18 88% 75.72 0.0
30 02:35 Calm 16.09 Fair CLR 20 18 88% 75.72 0.0
30 02:15 Calm 16.09 Fair CLR 20 18 88% 75.74 0.0
30 01:55 Calm 16.09 Fair CLR 20 19 94% 75.74 0.0
30 01:35 Calm 16.09 Fair CLR 20 19 94% 75.74 0.0
30 01:15 Calm 16.09 Fair CLR 20 19 94% 75.77 0.0
30 00:55 Calm 16.09 Fair CLR 20 19 94% 75.79 0.0
30 00:35 Calm 16.09 Fair CLR 21 19 88% 75.79 0.0
30 00:15 Calm 16.09 Fair CLR 21 19 88% 75.79 0.0
29 23:55 Calm 16.09 Fair CLR 21 19 88% 75.79 0.0
29 23:35 Calm 16.09 Fair CLR 21 19 88% 75.79 0.0
29 23:15 Calm 16.09 Fair CLR 21 19 88% 75.79 0.0
29 22:55 Calm 16.09 Fair CLR 21 19 88% 75.82 0.0
29 22:35 Calm 16.09 Fair CLR 21 18 83% 75.82 0.0
29 22:15 Calm 16.09 Fair CLR 21 18 83% 75.84 0.0
29 21:55 Calm 16.09 Fair CLR 21 18 83% 75.84 0.0
29 21:35 Calm 16.09 Fair CLR 21 18 83% 75.82 0.0
29 21:15 Calm 16.09 Fair CLR 21 18 83% 75.82 0.0
29 20:55 Calm 16.09 Fair CLR 21 18 83% 75.79 0.0
29 20:35 Calm 16.09 Fair CLR 21 18 83% 75.77 0.0
29 20:15 Calm 16.09 Fair CLR 21 18 83% 75.77 0.0
29 19:55 Calm 16.09 Fair CLR 22 18 78% 75.74 0.0
29 19:35 Calm 16.09 Fair CLR 22 18 78% 75.74 0.0
29 19:15 SE 9 16.09 Fair CLR 23 18 74% 75.74 0.0
Date Time (cdt) Wind (kph) Vis. (km) Weather Sky Cond. Air Dwpt Max. Min. Relative Humidity Wind Chill (°C) Heat Index (°C) altimeter (cm) sea level (mb) 1 hr 3 hr 6 hr
6 hour
Temperature (ºC) Pressure Precipitation (cm)